CAA2 weather

St. Andre-Avellin Aerodrome
St. Andre Avellin, Quebec, Canada

Public forecast

Using degrees Celsius for public forecast. Weather courtesy of forecast.io.

Closest aviation weather report (METAR) to St. Andre-Avellin Aerodrome

Closest report is Ottawa / Gatineau Airport, 24.5 nm (45.4 km) WSW. Retrieved 2020/05/27 21:00 UTC (21 minutes ago):

CYND 272100Z 23013G18KT 15SM FEW065 SCT220 34/16 A2998 RMK CU1CI3 CU TR SLP153 DENSITY ALT 2400FT

Closest aviation forecast (TAF) to St. Andre-Avellin Aerodrome

Forecast is more than 6 hours old.

Closest forecast is Ottawa / Gatineau Airport, 24.5 nm (45.4 km) WSW. Retrieved 2020/05/27 13:00 UTC (8 hours ago):

TAF CYND 271238Z 2713/2801 VRB03KT P6SM FEW150 BECMG 2714/2716 22012KT RMK NXT FCST BY 271800Z